sensor_id;sensor_type;location;lat;lon;timestamp;P1;durP1;ratioP1;P2;durP2;ratioP2
57635;SDS011;43465;50.728;4.160;2023-07-13T00:01:46;10.30;;;2.80;;
57635;SDS011;43465;50.728;4.160;2023-07-13T00:04:15;10.10;;;2.75;;
57635;SDS011;43465;50.728;4.160;2023-07-13T00:06:45;11.98;;;2.60;;
57635;SDS011;43465;50.728;4.160;2023-07-13T00:09:12;11.15;;;2.97;;
57635;SDS011;43465;50.728;4.160;2023-07-13T00:11:39;13.13;;;3.13;;
57635;SDS011;43465;50.728;4.160;2023-07-13T00:14:06;11.75;;;2.80;;
57635;SDS011;43465;50.728;4.160;2023-07-13T00:16:33;10.18;;;3.13;;
57635;SDS011;43465;50.728;4.160;2023-07-13T00:18:59;13.43;;;2.90;;
57635;SDS011;43465;50.728;4.160;2023-07-13T00:21:25;16.25;;;3.20;;
57635;SDS011;43465;50.728;4.160;2023-07-13T00:23:51;12.98;;;2.85;;
57635;SDS011;43465;50.728;4.160;2023-07-13T00:26:17;9.43;;;2.67;;
57635;SDS011;43465;50.728;4.160;2023-07-13T00:28:43;9.00;;;2.78;;
57635;SDS011;43465;50.728;4.160;2023-07-13T00:31:09;8.27;;;2.47;;
57635;SDS011;43465;50.728;4.160;2023-07-13T00:33:36;9.48;;;2.97;;
57635;SDS011;43465;50.728;4.160;2023-07-13T00:36:02;12.88;;;3.20;;
57635;SDS011;43465;50.728;4.160;2023-07-13T00:38:28;10.15;;;2.83;;
57635;SDS011;43465;50.728;4.160;2023-07-13T00:40:54;8.18;;;2.80;;
57635;SDS011;43465;50.728;4.160;2023-07-13T00:43:21;12.45;;;3.10;;
57635;SDS011;43465;50.728;4.160;2023-07-13T00:48:25;13.10;;;3.35;;
57635;SDS011;43465;50.728;4.160;2023-07-13T00:50:54;14.00;;;3.22;;
57635;SDS011;43465;50.728;4.160;2023-07-13T00:53:23;12.93;;;3.67;;
57635;SDS011;43465;50.728;4.160;2023-07-13T00:55:51;12.93;;;2.88;;
57635;SDS011;43465;50.728;4.160;2023-07-13T00:58:20;16.80;;;4.13;;
57635;SDS011;43465;50.728;4.160;2023-07-13T01:00:46;12.30;;;3.60;;
57635;SDS011;43465;50.728;4.160;2023-07-13T01:03:13;14.20;;;3.40;;
57635;SDS011;43465;50.728;4.160;2023-07-13T01:05:40;9.70;;;3.17;;
57635;SDS011;43465;50.728;4.160;2023-07-13T01:08:06;11.77;;;3.58;;
57635;SDS011;43465;50.728;4.160;2023-07-13T01:10:33;11.63;;;3.58;;
57635;SDS011;43465;50.728;4.160;2023-07-13T01:13:03;13.38;;;3.38;;
57635;SDS011;43465;50.728;4.160;2023-07-13T01:15:38;14.80;;;3.67;;
57635;SDS011;43465;50.728;4.160;2023-07-13T01:18:10;16.88;;;3.85;;
57635;SDS011;43465;50.728;4.160;2023-07-13T01:20:56;12.60;;;3.25;;
57635;SDS011;43465;50.728;4.160;2023-07-13T01:23:22;13.55;;;3.88;;
57635;SDS011;43465;50.728;4.160;2023-07-13T01:25:49;10.80;;;3.58;;
57635;SDS011;43465;50.728;4.160;2023-07-13T01:28:15;18.42;;;4.10;;
57635;SDS011;43465;50.728;4.160;2023-07-13T01:30:42;14.95;;;3.80;;
57635;SDS011;43465;50.728;4.160;2023-07-13T01:33:10;15.70;;;4.00;;
57635;SDS011;43465;50.728;4.160;2023-07-13T01:35:38;13.15;;;4.10;;
57635;SDS011;43465;50.728;4.160;2023-07-13T01:38:04;12.52;;;3.78;;
57635;SDS011;43465;50.728;4.160;2023-07-13T01:40:30;14.75;;;4.63;;
57635;SDS011;43465;50.728;4.160;2023-07-13T01:42:57;14.18;;;4.20;;
57635;SDS011;43465;50.728;4.160;2023-07-13T01:45:23;12.65;;;4.30;;
57635;SDS011;43465;50.728;4.160;2023-07-13T01:47:49;14.23;;;4.03;;
57635;SDS011;43465;50.728;4.160;2023-07-13T01:50:15;16.60;;;3.95;;
57635;SDS011;43465;50.728;4.160;2023-07-13T01:52:40;14.88;;;4.15;;
57635;SDS011;43465;50.728;4.160;2023-07-13T01:55:06;11.82;;;3.88;;
57635;SDS011;43465;50.728;4.160;2023-07-13T01:57:33;16.63;;;4.47;;
57635;SDS011;43465;50.728;4.160;2023-07-13T01:59:58;16.65;;;4.72;;
57635;SDS011;43465;50.728;4.160;2023-07-13T02:02:24;12.35;;;4.78;;
57635;SDS011;43465;50.728;4.160;2023-07-13T02:04:50;17.50;;;4.35;;
57635;SDS011;43465;50.728;4.160;2023-07-13T02:07:15;16.13;;;4.05;;
57635;SDS011;43465;50.728;4.160;2023-07-13T02:09:41;15.10;;;5.07;;
57635;SDS011;43465;50.728;4.160;2023-07-13T02:12:07;13.48;;;4.28;;
57635;SDS011;43465;50.728;4.160;2023-07-13T02:14:33;12.60;;;4.18;;
57635;SDS011;43465;50.728;4.160;2023-07-13T02:16:59;13.82;;;4.20;;
57635;SDS011;43465;50.728;4.160;2023-07-13T02:19:24;16.33;;;4.78;;
57635;SDS011;43465;50.728;4.160;2023-07-13T02:21:50;16.20;;;4.60;;
57635;SDS011;43465;50.728;4.160;2023-07-13T02:24:16;15.23;;;4.35;;
57635;SDS011;43465;50.728;4.160;2023-07-13T02:26:44;19.20;;;4.78;;
57635;SDS011;43465;50.728;4.160;2023-07-13T02:29:10;18.13;;;5.15;;
57635;SDS011;43465;50.728;4.160;2023-07-13T02:31:36;16.10;;;4.65;;
57635;SDS011;43465;50.728;4.160;2023-07-13T02:34:01;13.55;;;4.80;;
57635;SDS011;43465;50.728;4.160;2023-07-13T02:36:28;21.23;;;5.00;;
57635;SDS011;43465;50.728;4.160;2023-07-13T02:38:54;17.35;;;4.60;;
57635;SDS011;43465;50.728;4.160;2023-07-13T02:41:19;16.23;;;4.75;;
57635;SDS011;43465;50.728;4.160;2023-07-13T02:43:45;15.85;;;4.50;;
57635;SDS011;43465;50.728;4.160;2023-07-13T02:46:11;16.45;;;4.57;;
57635;SDS011;43465;50.728;4.160;2023-07-13T02:48:37;14.48;;;5.20;;
57635;SDS011;43465;50.728;4.160;2023-07-13T02:51:04;11.20;;;4.57;;
57635;SDS011;43465;50.728;4.160;2023-07-13T02:53:30;15.65;;;4.57;;
57635;SDS011;43465;50.728;4.160;2023-07-13T02:55:55;16.83;;;5.43;;
57635;SDS011;43465;50.728;4.160;2023-07-13T02:58:21;17.75;;;4.88;;
57635;SDS011;43465;50.728;4.160;2023-07-13T03:00:47;16.52;;;5.40;;
57635;SDS011;43465;50.728;4.160;2023-07-13T03:03:15;15.43;;;5.07;;
57635;SDS011;43465;50.728;4.160;2023-07-13T03:05:42;16.63;;;5.28;;
57635;SDS011;43465;50.728;4.160;2023-07-13T03:08:10;18.40;;;5.60;;
57635;SDS011;43465;50.728;4.160;2023-07-13T03:10:36;20.08;;;6.15;;
57635;SDS011;43465;50.728;4.160;2023-07-13T03:13:02;20.45;;;5.68;;
57635;SDS011;43465;50.728;4.160;2023-07-13T03:15:28;19.95;;;5.95;;
57635;SDS011;43465;50.728;4.160;2023-07-13T03:17:54;20.42;;;5.82;;
57635;SDS011;43465;50.728;4.160;2023-07-13T03:20:19;18.50;;;5.80;;
57635;SDS011;43465;50.728;4.160;2023-07-13T03:22:46;17.50;;;5.60;;
57635;SDS011;43465;50.728;4.160;2023-07-13T03:25:12;21.95;;;5.00;;
57635;SDS011;43465;50.728;4.160;2023-07-13T03:27:38;19.23;;;5.60;;
57635;SDS011;43465;50.728;4.160;2023-07-13T03:30:04;19.40;;;5.53;;
57635;SDS011;43465;50.728;4.160;2023-07-13T03:32:30;17.67;;;5.35;;
57635;SDS011;43465;50.728;4.160;2023-07-13T03:34:56;18.42;;;5.03;;
57635;SDS011;43465;50.728;4.160;2023-07-13T03:37:22;17.65;;;5.20;;
57635;SDS011;43465;50.728;4.160;2023-07-13T03:39:48;16.33;;;5.22;;
57635;SDS011;43465;50.728;4.160;2023-07-13T03:42:14;22.77;;;5.53;;
57635;SDS011;43465;50.728;4.160;2023-07-13T03:44:40;15.18;;;5.05;;
57635;SDS011;43465;50.728;4.160;2023-07-13T03:47:07;21.95;;;5.22;;
57635;SDS011;43465;50.728;4.160;2023-07-13T03:49:34;20.85;;;5.43;;
57635;SDS011;43465;50.728;4.160;2023-07-13T03:51:59;23.27;;;5.65;;
57635;SDS011;43465;50.728;4.160;2023-07-13T03:54:25;17.27;;;5.25;;
57635;SDS011;43465;50.728;4.160;2023-07-13T03:56:51;20.15;;;5.90;;
57635;SDS011;43465;50.728;4.160;2023-07-13T03:59:17;16.55;;;5.25;;
57635;SDS011;43465;50.728;4.160;2023-07-13T04:01:44;18.88;;;5.95;;
57635;SDS011;43465;50.728;4.160;2023-07-13T04:04:09;15.27;;;6.35;;
57635;SDS011;43465;50.728;4.160;2023-07-13T04:06:35;16.75;;;6.10;;
57635;SDS011;43465;50.728;4.160;2023-07-13T04:09:02;22.83;;;5.95;;
57635;SDS011;43465;50.728;4.160;2023-07-13T04:11:30;18.60;;;5.53;;
57635;SDS011;43465;50.728;4.160;2023-07-13T04:13:57;16.60;;;5.10;;
57635;SDS011;43465;50.728;4.160;2023-07-13T04:16:22;20.23;;;6.22;;
57635;SDS011;43465;50.728;4.160;2023-07-13T04:18:48;22.67;;;6.07;;
57635;SDS011;43465;50.728;4.160;2023-07-13T04:21:14;16.17;;;5.35;;
57635;SDS011;43465;50.728;4.160;2023-07-13T04:23:41;21.02;;;6.38;;
57635;SDS011;43465;50.728;4.160;2023-07-13T04:26:07;19.95;;;5.35;;
57635;SDS011;43465;50.728;4.160;2023-07-13T04:28:33;19.98;;;5.22;;
57635;SDS011;43465;50.728;4.160;2023-07-13T04:30:59;17.42;;;5.35;;
57635;SDS011;43465;50.728;4.160;2023-07-13T04:33:25;18.73;;;5.50;;
57635;SDS011;43465;50.728;4.160;2023-07-13T04:35:52;21.98;;;5.63;;
57635;SDS011;43465;50.728;4.160;2023-07-13T04:38:22;21.55;;;5.03;;
57635;SDS011;43465;50.728;4.160;2023-07-13T04:40:53;23.83;;;5.20;;
57635;SDS011;43465;50.728;4.160;2023-07-13T04:43:24;17.00;;;5.22;;
57635;SDS011;43465;50.728;4.160;2023-07-13T04:45:50;22.67;;;5.95;;
57635;SDS011;43465;50.728;4.160;2023-07-13T04:48:17;14.18;;;5.03;;
57635;SDS011;43465;50.728;4.160;2023-07-13T04:50:43;21.08;;;5.88;;
57635;SDS011;43465;50.728;4.160;2023-07-13T04:53:09;22.20;;;5.38;;
57635;SDS011;43465;50.728;4.160;2023-07-13T04:55:35;20.67;;;5.00;;
57635;SDS011;43465;50.728;4.160;2023-07-13T04:58:01;15.68;;;5.00;;
57635;SDS011;43465;50.728;4.160;2023-07-13T05:00:28;16.92;;;5.18;;
57635;SDS011;43465;50.728;4.160;2023-07-13T05:02:57;17.65;;;4.93;;
57635;SDS011;43465;50.728;4.160;2023-07-13T05:05:24;24.75;;;5.53;;
57635;SDS011;43465;50.728;4.160;2023-07-13T05:07:51;18.77;;;5.20;;
57635;SDS011;43465;50.728;4.160;2023-07-13T05:10:17;23.20;;;5.43;;
57635;SDS011;43465;50.728;4.160;2023-07-13T05:12:43;19.73;;;4.90;;
57635;SDS011;43465;50.728;4.160;2023-07-13T05:15:09;12.25;;;4.30;;
57635;SDS011;43465;50.728;4.160;2023-07-13T05:17:35;18.60;;;4.93;;
57635;SDS011;43465;50.728;4.160;2023-07-13T05:20:00;16.88;;;4.70;;
57635;SDS011;43465;50.728;4.160;2023-07-13T05:22:26;17.33;;;4.60;;
57635;SDS011;43465;50.728;4.160;2023-07-13T05:24:52;18.45;;;4.45;;
57635;SDS011;43465;50.728;4.160;2023-07-13T05:27:17;24.52;;;4.28;;
57635;SDS011;43465;50.728;4.160;2023-07-13T05:29:43;27.58;;;4.70;;
57635;SDS011;43465;50.728;4.160;2023-07-13T05:32:09;22.42;;;4.88;;
57635;SDS011;43465;50.728;4.160;2023-07-13T05:34:35;18.05;;;4.60;;
57635;SDS011;43465;50.728;4.160;2023-07-13T05:37:01;16.42;;;4.45;;
57635;SDS011;43465;50.728;4.160;2023-07-13T05:39:26;15.07;;;4.63;;
57635;SDS011;43465;50.728;4.160;2023-07-13T05:41:52;14.73;;;4.63;;
57635;SDS011;43465;50.728;4.160;2023-07-13T05:44:18;16.13;;;4.20;;
57635;SDS011;43465;50.728;4.160;2023-07-13T05:46:44;17.45;;;4.65;;
57635;SDS011;43465;50.728;4.160;2023-07-13T05:49:10;12.52;;;4.35;;
57635;SDS011;43465;50.728;4.160;2023-07-13T05:51:35;19.25;;;5.13;;
57635;SDS011;43465;50.728;4.160;2023-07-13T05:54:01;17.48;;;4.57;;
57635;SDS011;43465;50.728;4.160;2023-07-13T05:56:27;18.15;;;4.40;;
57635;SDS011;43465;50.728;4.160;2023-07-13T05:58:53;17.08;;;4.10;;
57635;SDS011;43465;50.728;4.160;2023-07-13T06:01:18;16.77;;;4.53;;
57635;SDS011;43465;50.728;4.160;2023-07-13T06:03:45;12.20;;;4.38;;
57635;SDS011;43465;50.728;4.160;2023-07-13T06:06:11;21.23;;;4.70;;
57635;SDS011;43465;50.728;4.160;2023-07-13T06:08:37;19.52;;;4.45;;
57635;SDS011;43465;50.728;4.160;2023-07-13T06:13:42;18.75;;;4.05;;
57635;SDS011;43465;50.728;4.160;2023-07-13T06:16:08;19.70;;;4.30;;
57635;SDS011;43465;50.728;4.160;2023-07-13T06:18:40;12.52;;;3.50;;
57635;SDS011;43465;50.728;4.160;2023-07-13T06:21:12;15.80;;;4.15;;
57635;SDS011;43465;50.728;4.160;2023-07-13T06:23:40;14.90;;;4.07;;
57635;SDS011;43465;50.728;4.160;2023-07-13T06:26:07;14.98;;;4.10;;
57635;SDS011;43465;50.728;4.160;2023-07-13T06:28:33;15.40;;;3.90;;
57635;SDS011;43465;50.728;4.160;2023-07-13T06:30:59;23.13;;;4.65;;
57635;SDS011;43465;50.728;4.160;2023-07-13T06:33:25;16.98;;;4.03;;
57635;SDS011;43465;50.728;4.160;2023-07-13T06:35:51;15.23;;;4.20;;
57635;SDS011;43465;50.728;4.160;2023-07-13T06:38:19;15.32;;;4.15;;
57635;SDS011;43465;50.728;4.160;2023-07-13T06:40:45;18.75;;;4.32;;
57635;SDS011;43465;50.728;4.160;2023-07-13T06:43:11;14.25;;;3.80;;
57635;SDS011;43465;50.728;4.160;2023-07-13T06:45:40;16.55;;;4.35;;
57635;SDS011;43465;50.728;4.160;2023-07-13T06:48:10;13.02;;;4.35;;
57635;SDS011;43465;50.728;4.160;2023-07-13T06:50:36;14.55;;;3.97;;
57635;SDS011;43465;50.728;4.160;2023-07-13T06:53:02;13.25;;;3.90;;
57635;SDS011;43465;50.728;4.160;2023-07-13T06:55:27;16.42;;;3.95;;
57635;SDS011;43465;50.728;4.160;2023-07-13T06:57:53;17.48;;;4.47;;
57635;SDS011;43465;50.728;4.160;2023-07-13T07:00:19;13.10;;;3.47;;
57635;SDS011;43465;50.728;4.160;2023-07-13T07:02:44;14.88;;;4.00;;
57635;SDS011;43465;50.728;4.160;2023-07-13T07:05:10;12.57;;;4.07;;
57635;SDS011;43465;50.728;4.160;2023-07-13T07:07:36;20.13;;;4.10;;
57635;SDS011;43465;50.728;4.160;2023-07-13T07:10:02;11.27;;;3.85;;
57635;SDS011;43465;50.728;4.160;2023-07-13T07:12:28;11.45;;;3.80;;
57635;SDS011;43465;50.728;4.160;2023-07-13T07:14:54;12.82;;;4.00;;
57635;SDS011;43465;50.728;4.160;2023-07-13T07:17:20;16.25;;;4.22;;
57635;SDS011;43465;50.728;4.160;2023-07-13T07:19:45;16.15;;;3.70;;
57635;SDS011;43465;50.728;4.160;2023-07-13T07:22:14;13.48;;;3.72;;
57635;SDS011;43465;50.728;4.160;2023-07-13T07:24:40;13.95;;;3.72;;
57635;SDS011;43465;50.728;4.160;2023-07-13T07:27:05;10.43;;;3.35;;
57635;SDS011;43465;50.728;4.160;2023-07-13T07:29:31;15.20;;;4.10;;
57635;SDS011;43465;50.728;4.160;2023-07-13T07:31:58;12.93;;;3.70;;
57635;SDS011;43465;50.728;4.160;2023-07-13T07:34:25;19.90;;;4.18;;
57635;SDS011;43465;50.728;4.160;2023-07-13T07:36:50;11.88;;;3.50;;
57635;SDS011;43465;50.728;4.160;2023-07-13T07:39:16;15.88;;;3.70;;
57635;SDS011;43465;50.728;4.160;2023-07-13T07:41:42;13.77;;;4.10;;
57635;SDS011;43465;50.728;4.160;2023-07-13T07:44:07;13.68;;;3.80;;
57635;SDS011;43465;50.728;4.160;2023-07-13T07:46:34;13.40;;;3.42;;
57635;SDS011;43465;50.728;4.160;2023-07-13T07:49:00;15.93;;;3.58;;
57635;SDS011;43465;50.728;4.160;2023-07-13T07:51:26;15.73;;;4.47;;
57635;SDS011;43465;50.728;4.160;2023-07-13T07:53:51;6.95;;;3.45;;
57635;SDS011;43465;50.728;4.160;2023-07-13T07:56:17;12.48;;;3.47;;
57635;SDS011;43465;50.728;4.160;2023-07-13T07:58:43;13.30;;;3.58;;
57635;SDS011;43465;50.728;4.160;2023-07-13T08:01:09;15.55;;;4.05;;
57635;SDS011;43465;50.728;4.160;2023-07-13T08:03:35;12.55;;;3.80;;
57635;SDS011;43465;50.728;4.160;2023-07-13T08:06:00;10.43;;;3.38;;
57635;SDS011;43465;50.728;4.160;2023-07-13T08:08:26;12.27;;;3.85;;
57635;SDS011;43465;50.728;4.160;2023-07-13T08:10:52;11.10;;;3.47;;
57635;SDS011;43465;50.728;4.160;2023-07-13T08:13:18;13.50;;;3.08;;
57635;SDS011;43465;50.728;4.160;2023-07-13T08:15:47;12.65;;;4.13;;
57635;SDS011;43465;50.728;4.160;2023-07-13T08:18:14;11.40;;;3.65;;
57635;SDS011;43465;50.728;4.160;2023-07-13T08:20:40;12.88;;;3.72;;
57635;SDS011;43465;50.728;4.160;2023-07-13T08:23:09;10.57;;;3.60;;
57635;SDS011;43465;50.728;4.160;2023-07-13T08:25:35;12.35;;;3.25;;
57635;SDS011;43465;50.728;4.160;2023-07-13T08:28:02;11.82;;;3.85;;
57635;SDS011;43465;50.728;4.160;2023-07-13T08:30:28;11.60;;;3.60;;
57635;SDS011;43465;50.728;4.160;2023-07-13T08:32:54;10.38;;;3.63;;
57635;SDS011;43465;50.728;4.160;2023-07-13T08:35:19;8.65;;;3.53;;
57635;SDS011;43465;50.728;4.160;2023-07-13T08:37:45;11.50;;;3.88;;
57635;SDS011;43465;50.728;4.160;2023-07-13T08:40:11;11.60;;;3.47;;
57635;SDS011;43465;50.728;4.160;2023-07-13T08:45:21;12.48;;;3.78;;
57635;SDS011;43465;50.728;4.160;2023-07-13T08:50:56;12.75;;;3.30;;
57635;SDS011;43465;50.728;4.160;2023-07-13T08:53:36;11.85;;;3.13;;
57635;SDS011;43465;50.728;4.160;2023-07-13T08:56:07;12.40;;;3.58;;
57635;SDS011;43465;50.728;4.160;2023-07-13T08:58:41;12.40;;;3.47;;
57635;SDS011;43465;50.728;4.160;2023-07-13T09:04:12;14.48;;;4.20;;
57635;SDS011;43465;50.728;4.160;2023-07-13T09:09:43;10.07;;;3.25;;
57635;SDS011;43465;50.728;4.160;2023-07-13T09:12:39;8.80;;;2.97;;
57635;SDS011;43465;50.728;4.160;2023-07-13T09:15:17;10.48;;;3.45;;
57635;SDS011;43465;50.728;4.160;2023-07-13T09:17:50;8.98;;;3.50;;
57635;SDS011;43465;50.728;4.160;2023-07-13T09:22:52;12.15;;;3.25;;
57635;SDS011;43465;50.728;4.160;2023-07-13T09:28:10;10.05;;;2.95;;
57635;SDS011;43465;50.728;4.160;2023-07-13T09:30:56;8.52;;;2.88;;
57635;SDS011;43465;50.728;4.160;2023-07-13T09:35:59;6.95;;;2.47;;
57635;SDS011;43465;50.728;4.160;2023-07-13T09:38:27;9.25;;;3.28;;
57635;SDS011;43465;50.728;4.160;2023-07-13T09:46:57;10.88;;;2.90;;
57635;SDS011;43465;50.728;4.160;2023-07-13T09:49:27;5.60;;;2.55;;
57635;SDS011;43465;50.728;4.160;2023-07-13T09:51:58;9.48;;;2.88;;
57635;SDS011;43465;50.728;4.160;2023-07-13T09:54:28;7.32;;;2.85;;
57635;SDS011;43465;50.728;4.160;2023-07-13T09:56:57;8.13;;;2.60;;
57635;SDS011;43465;50.728;4.160;2023-07-13T09:59:28;9.10;;;2.67;;
57635;SDS011;43465;50.728;4.160;2023-07-13T10:01:56;10.35;;;3.22;;
57635;SDS011;43465;50.728;4.160;2023-07-13T10:04:26;9.57;;;2.40;;
57635;SDS011;43465;50.728;4.160;2023-07-13T10:07:06;8.45;;;2.92;;
57635;SDS011;43465;50.728;4.160;2023-07-13T10:09:33;8.65;;;2.97;;
57635;SDS011;43465;50.728;4.160;2023-07-13T10:11:59;7.85;;;2.47;;
57635;SDS011;43465;50.728;4.160;2023-07-13T10:14:26;11.32;;;2.70;;
57635;SDS011;43465;50.728;4.160;2023-07-13T10:16:59;9.57;;;2.45;;
57635;SDS011;43465;50.728;4.160;2023-07-13T10:19:32;7.72;;;2.58;;
57635;SDS011;43465;50.728;4.160;2023-07-13T10:22:01;7.95;;;3.05;;
57635;SDS011;43465;50.728;4.160;2023-07-13T10:24:35;11.15;;;2.92;;
57635;SDS011;43465;50.728;4.160;2023-07-13T10:27:19;8.93;;;2.67;;
57635;SDS011;43465;50.728;4.160;2023-07-13T10:30:02;12.40;;;2.63;;
57635;SDS011;43465;50.728;4.160;2023-07-13T10:32:42;8.60;;;2.75;;
57635;SDS011;43465;50.728;4.160;2023-07-13T10:35:10;9.60;;;2.58;;
57635;SDS011;43465;50.728;4.160;2023-07-13T10:41:05;6.38;;;2.40;;
57635;SDS011;43465;50.728;4.160;2023-07-13T10:43:37;8.20;;;2.58;;
57635;SDS011;43465;50.728;4.160;2023-07-13T10:46:08;11.70;;;3.15;;
57635;SDS011;43465;50.728;4.160;2023-07-13T10:48:37;9.20;;;2.80;;
57635;SDS011;43465;50.728;4.160;2023-07-13T10:51:05;9.02;;;2.67;;
57635;SDS011;43465;50.728;4.160;2023-07-13T10:53:36;6.45;;;2.22;;
57635;SDS011;43465;50.728;4.160;2023-07-13T10:56:03;8.95;;;2.60;;
57635;SDS011;43465;50.728;4.160;2023-07-13T11:01:06;6.47;;;2.45;;
57635;SDS011;43465;50.728;4.160;2023-07-13T11:03:33;6.07;;;2.42;;
57635;SDS011;43465;50.728;4.160;2023-07-13T11:06:08;6.10;;;2.05;;
57635;SDS011;43465;50.728;4.160;2023-07-13T11:08:55;5.07;;;2.08;;
57635;SDS011;43465;50.728;4.160;2023-07-13T11:18:44;5.38;;;2.20;;
57635;SDS011;43465;50.728;4.160;2023-07-13T11:21:28;5.18;;;1.95;;
57635;SDS011;43465;50.728;4.160;2023-07-13T11:24:14;6.10;;;2.13;;
57635;SDS011;43465;50.728;4.160;2023-07-13T11:29:24;6.38;;;2.10;;
57635;SDS011;43465;50.728;4.160;2023-07-13T11:32:00;5.25;;;1.95;;
57635;SDS011;43465;50.728;4.160;2023-07-13T11:34:45;7.47;;;2.00;;
57635;SDS011;43465;50.728;4.160;2023-07-13T11:37:12;5.22;;;1.98;;
57635;SDS011;43465;50.728;4.160;2023-07-13T11:39:42;5.13;;;1.98;;
57635;SDS011;43465;50.728;4.160;2023-07-13T11:42:10;5.40;;;2.28;;
57635;SDS011;43465;50.728;4.160;2023-07-13T11:44:43;5.47;;;1.90;;
57635;SDS011;43465;50.728;4.160;2023-07-13T11:47:14;7.35;;;1.67;;
57635;SDS011;43465;50.728;4.160;2023-07-13T11:49:47;7.93;;;2.03;;
57635;SDS011;43465;50.728;4.160;2023-07-13T11:52:15;4.28;;;1.77;;
57635;SDS011;43465;50.728;4.160;2023-07-13T11:54:46;4.55;;;1.60;;
57635;SDS011;43465;50.728;4.160;2023-07-13T11:57:33;3.92;;;1.20;;
57635;SDS011;43465;50.728;4.160;2023-07-13T12:00:15;6.32;;;1.75;;
57635;SDS011;43465;50.728;4.160;2023-07-13T12:02:47;3.97;;;1.40;;
57635;SDS011;43465;50.728;4.160;2023-07-13T12:05:16;3.20;;;1.27;;
57635;SDS011;43465;50.728;4.160;2023-07-13T12:07:43;5.00;;;1.40;;
57635;SDS011;43465;50.728;4.160;2023-07-13T12:10:23;5.75;;;1.40;;
57635;SDS011;43465;50.728;4.160;2023-07-13T12:12:55;6.28;;;1.55;;
57635;SDS011;43465;50.728;4.160;2023-07-13T12:15:43;6.97;;;1.80;;
57635;SDS011;43465;50.728;4.160;2023-07-13T12:18:21;3.33;;;1.50;;
57635;SDS011;43465;50.728;4.160;2023-07-13T12:20:51;5.10;;;1.40;;
57635;SDS011;43465;50.728;4.160;2023-07-13T12:25:59;2.83;;;1.40;;
57635;SDS011;43465;50.728;4.160;2023-07-13T12:28:33;4.63;;;1.63;;
57635;SDS011;43465;50.728;4.160;2023-07-13T12:33:28;4.10;;;1.90;;
57635;SDS011;43465;50.728;4.160;2023-07-13T12:35:56;3.85;;;2.13;;
57635;SDS011;43465;50.728;4.160;2023-07-13T12:38:24;4.78;;;1.88;;
57635;SDS011;43465;50.728;4.160;2023-07-13T12:40:51;3.90;;;2.15;;
57635;SDS011;43465;50.728;4.160;2023-07-13T12:43:20;5.43;;;2.20;;
57635;SDS011;43465;50.728;4.160;2023-07-13T12:48:29;4.13;;;2.10;;
57635;SDS011;43465;50.728;4.160;2023-07-13T12:50:55;5.07;;;2.30;;
57635;SDS011;43465;50.728;4.160;2023-07-13T12:53:29;4.90;;;1.98;;
57635;SDS011;43465;50.728;4.160;2023-07-13T12:56:01;3.63;;;1.92;;
57635;SDS011;43465;50.728;4.160;2023-07-13T12:58:39;8.15;;;2.22;;
57635;SDS011;43465;50.728;4.160;2023-07-13T13:01:09;4.72;;;2.05;;
57635;SDS011;43465;50.728;4.160;2023-07-13T13:03:38;5.88;;;2.10;;
57635;SDS011;43465;50.728;4.160;2023-07-13T13:08:51;4.40;;;1.88;;
57635;SDS011;43465;50.728;4.160;2023-07-13T13:11:19;3.92;;;1.90;;
57635;SDS011;43465;50.728;4.160;2023-07-13T13:13:46;2.63;;;1.70;;
57635;SDS011;43465;50.728;4.160;2023-07-13T13:18:54;6.50;;;1.60;;
57635;SDS011;43465;50.728;4.160;2023-07-13T13:21:22;3.78;;;1.50;;
57635;SDS011;43465;50.728;4.160;2023-07-13T13:23:49;4.85;;;1.45;;
57635;SDS011;43465;50.728;4.160;2023-07-13T13:26:16;4.03;;;1.40;;
57635;SDS011;43465;50.728;4.160;2023-07-13T13:28:42;2.63;;;1.45;;
57635;SDS011;43465;50.728;4.160;2023-07-13T13:31:12;4.07;;;1.48;;
57635;SDS011;43465;50.728;4.160;2023-07-13T13:33:39;3.88;;;1.35;;
57635;SDS011;43465;50.728;4.160;2023-07-13T13:38:40;2.13;;;1.40;;
57635;SDS011;43465;50.728;4.160;2023-07-13T13:41:08;4.40;;;1.35;;
57635;SDS011;43465;50.728;4.160;2023-07-13T13:43:35;2.90;;;1.70;;
57635;SDS011;43465;50.728;4.160;2023-07-13T13:46:00;3.85;;;1.80;;
57635;SDS011;43465;50.728;4.160;2023-07-13T13:48:29;3.97;;;1.60;;
57635;SDS011;43465;50.728;4.160;2023-07-13T13:50:56;5.50;;;1.60;;
57635;SDS011;43465;50.728;4.160;2023-07-13T13:53:22;3.40;;;1.70;;
57635;SDS011;43465;50.728;4.160;2023-07-13T13:55:48;4.35;;;1.73;;
57635;SDS011;43465;50.728;4.160;2023-07-13T13:58:15;3.03;;;1.70;;
57635;SDS011;43465;50.728;4.160;2023-07-13T14:00:40;2.45;;;1.40;;
57635;SDS011;43465;50.728;4.160;2023-07-13T14:03:14;4.53;;;2.08;;
57635;SDS011;43465;50.728;4.160;2023-07-13T14:05:43;4.78;;;1.90;;
57635;SDS011;43465;50.728;4.160;2023-07-13T14:08:16;5.15;;;2.03;;
57635;SDS011;43465;50.728;4.160;2023-07-13T14:10:46;5.88;;;1.98;;
57635;SDS011;43465;50.728;4.160;2023-07-13T14:13:18;5.95;;;2.10;;
57635;SDS011;43465;50.728;4.160;2023-07-13T14:15:52;5.05;;;2.40;;
57635;SDS011;43465;50.728;4.160;2023-07-13T14:18:18;6.45;;;1.90;;
57635;SDS011;43465;50.728;4.160;2023-07-13T14:20:44;3.47;;;2.10;;
57635;SDS011;43465;50.728;4.160;2023-07-13T14:23:14;3.80;;;2.22;;
57635;SDS011;43465;50.728;4.160;2023-07-13T14:25:41;4.78;;;2.20;;
57635;SDS011;43465;50.728;4.160;2023-07-13T14:28:15;7.03;;;2.13;;
57635;SDS011;43465;50.728;4.160;2023-07-13T14:30:50;4.70;;;2.20;;
57635;SDS011;43465;50.728;4.160;2023-07-13T14:33:17;5.90;;;2.25;;
57635;SDS011;43465;50.728;4.160;2023-07-13T14:35:43;5.35;;;2.03;;
57635;SDS011;43465;50.728;4.160;2023-07-13T14:38:10;4.53;;;2.15;;
57635;SDS011;43465;50.728;4.160;2023-07-13T14:40:38;4.00;;;1.90;;
57635;SDS011;43465;50.728;4.160;2023-07-13T14:43:04;4.43;;;2.10;;
57635;SDS011;43465;50.728;4.160;2023-07-13T14:45:33;5.78;;;2.25;;
57635;SDS011;43465;50.728;4.160;2023-07-13T14:48:01;4.18;;;2.08;;
57635;SDS011;43465;50.728;4.160;2023-07-13T14:50:30;3.58;;;1.90;;
57635;SDS011;43465;50.728;4.160;2023-07-13T14:52:57;7.40;;;2.15;;
57635;SDS011;43465;50.728;4.160;2023-07-13T14:55:23;3.63;;;1.85;;
57635;SDS011;43465;50.728;4.160;2023-07-13T14:57:51;4.75;;;1.58;;
57635;SDS011;43465;50.728;4.160;2023-07-13T15:00:18;2.75;;;1.48;;
57635;SDS011;43465;50.728;4.160;2023-07-13T15:02:47;3.20;;;1.58;;
57635;SDS011;43465;50.728;4.160;2023-07-13T15:05:16;4.70;;;1.80;;
57635;SDS011;43465;50.728;4.160;2023-07-13T15:07:48;3.20;;;1.50;;
57635;SDS011;43465;50.728;4.160;2023-07-13T15:12:50;3.67;;;1.13;;
57635;SDS011;43465;50.728;4.160;2023-07-13T15:15:16;5.43;;;1.73;;
57635;SDS011;43465;50.728;4.160;2023-07-13T15:17:43;4.88;;;1.60;;
57635;SDS011;43465;50.728;4.160;2023-07-13T15:20:19;3.33;;;1.70;;
57635;SDS011;43465;50.728;4.160;2023-07-13T15:22:48;5.57;;;1.73;;
57635;SDS011;43465;50.728;4.160;2023-07-13T15:25:19;4.03;;;1.60;;
57635;SDS011;43465;50.728;4.160;2023-07-13T15:27:47;3.58;;;1.60;;
57635;SDS011;43465;50.728;4.160;2023-07-13T15:30:13;2.20;;;1.52;;
57635;SDS011;43465;50.728;4.160;2023-07-13T15:32:39;2.90;;;1.65;;
57635;SDS011;43465;50.728;4.160;2023-07-13T15:35:16;5.03;;;1.70;;
57635;SDS011;43465;50.728;4.160;2023-07-13T15:37:47;2.88;;;1.67;;
57635;SDS011;43465;50.728;4.160;2023-07-13T15:40:13;3.35;;;2.20;;
57635;SDS011;43465;50.728;4.160;2023-07-13T15:42:42;3.55;;;1.90;;
57635;SDS011;43465;50.728;4.160;2023-07-13T15:45:19;3.47;;;1.50;;
57635;SDS011;43465;50.728;4.160;2023-07-13T15:47:48;5.22;;;1.90;;
57635;SDS011;43465;50.728;4.160;2023-07-13T15:50:16;3.95;;;1.63;;
57635;SDS011;43465;50.728;4.160;2023-07-13T15:52:44;2.97;;;1.80;;